• Join FlightAware (Why Join?)
  • Login
  • US Flag 
03:43AM EDT


 

Airport Tracker/Info


-or-


 

Live Flight TrackerFlight Track Log ✈ SKW5162 ✈ 20-May-2013 ✈ KMCO - KIAH

Flight Track Log - Related Links

Times and Time Zones

All times are in EDT time to prevent confusion due to time zone crossing. See the SKW5162 flight status page for this flight to view local times or setup timezone preferences in your user account.

Time Position Orientation Groundspeed Altitude Reporting Facility
EDT Latitude Longitude Course Direction KTS MPH feet Rate Location/Type
04:04PM 28.4333 -81.3167 270° West 153 176 400  Level Orlando TRACON
04:06PM 28.3500 -81.3500 199° South 225 259 3,100 1,920 Climbing Orlando TRACON
04:07PM 28.3167 -81.4167 240° Southwest 276 318 5,100 2,400 Climbing Orlando TRACON
04:08PM 28.4167 -81.8211 270° West  Level FlightAware Approximate
04:08PM 28.3500 -81.5000 294° West 274 315 7,900  Level Orlando TRACON
04:09PM 28.4167 -81.9513 270° West  Level FlightAware Approximate
04:09PM 28.3667 -81.5833 283° West 280 322 10,000  Level Orlando TRACON
04:10PM 28.4167 -82.0816 270° West  Level FlightAware Approximate
04:10PM 28.3833 -81.6833 281° West 314 361 12,400  Level Orlando TRACON
04:12PM 28.4342 -81.9200 284° West 326 375 17,600 2,040 Climbing Jacksonville Center
04:13PM 28.4622 -82.0214 287° West 331 381 19,200 1,440 Climbing Jacksonville Center
04:14PM 28.4878 -82.1131 288° West 336 387 20,500 1,380 Climbing Jacksonville Center
04:15PM 28.5281 -82.2192 293° West 349 402 22,000 1,560 Climbing Jacksonville Center
04:16PM 28.5661 -82.3228 293° West 349 402 23,700 1,260 Climbing Jacksonville Center
04:17PM 28.6144 -82.4267 298° West 355 409 24,600 1,080 Climbing Jacksonville Center
04:18PM 28.6442 -82.5425 286° West 367 422 25,900 1,200 Climbing Jacksonville Center
04:19PM 28.6547 -82.6656 276° West 387 445 27,100 1,200 Climbing Jacksonville Center
04:20PM 28.6653 -82.7956 275° West 406 467 28,400 1,200 Climbing Jacksonville Center
04:21PM 28.6778 -82.9233 276° West 411 473 29,500 1,080 Climbing Jacksonville Center
04:22PM 28.6925 -83.0631 277° West 411 473 30,600 1,080 Climbing Jacksonville Center
04:23PM 28.7047 -83.1956 276° West 411 473 31,700 1,080 Climbing Jacksonville Center
04:24PM 28.7397 -83.3189 288° West 411 473 32,800 1,200 Climbing Jacksonville Center
04:25PM 28.8103 -83.4281 306° West 416 479 34,200 1,260 Climbing Jacksonville Center
04:26PM 28.8789 -83.5306 307° West 416 479 35,400 900 Climbing Jacksonville Center
04:27PM 28.9431 -83.6328 306° West 409 471 36,000 900 Climbing Jacksonville Center
04:28PM 29.0111 -83.7356 307° West 409 471 37,200 900 Climbing Jacksonville Center
04:29PM 29.0753 -83.8358 306° West 404 465 37,800 360 Climbing Jacksonville Center
04:30PM 29.1411 -83.9386 306° West 404 465 38,000 60 Climbing Jacksonville Center
04:31PM 29.2050 -84.0417 305° West 404 465 38,000  Level Jacksonville Center
04:32PM 29.2728 -84.1494 306° West 404 465 38,000  Level Jacksonville Center
04:33PM 29.3406 -84.2575 306° West 409 471 38,000  Level Jacksonville Center
04:34PM 29.4103 -84.3658 306° West 414 476 38,000  Level Jacksonville Center
04:35PM 29.4781 -84.4719 306° West 414 476 38,000  Level Jacksonville Center
04:36PM 29.5456 -84.5781 306° West 414 476 38,000  Level Jacksonville Center
04:37PM 29.6131 -84.6889 305° West 414 476 38,000  Level Jacksonville Center
04:38PM 29.6803 -84.7931 307° West 414 476 38,000  Level Jacksonville Center
04:39PM 29.7475 -84.9019 305° West 414 476 38,000  Level Jacksonville Center
04:40PM 29.8147 -85.0111 305° West 414 476 38,000  Level Jacksonville Center
04:41PM 29.8817 -85.1181 306° West 414 476 38,000  Level Jacksonville Center
04:42PM 29.9486 -85.2250 306° West 414 476 38,000  Level Jacksonville Center
04:43PM 30.0136 -85.3319 305° West 414 476 38,000  Level Jacksonville Center
04:44PM 30.0783 -85.4392 305° West 414 476 38,000  Level Jacksonville Center
04:45PM 30.1425 -85.5611 301° West 421 484 38,000  Level Jacksonville Center
04:46PM 30.2069 -85.6686 305° West 426 490 38,000  Level Jacksonville Center
04:47PM 30.2486 -85.7781 294° West 420 483 38,000  Level Jacksonville Center
04:48PM 30.2894 -85.9044 291° West 420 483 38,000  Level Jacksonville Center
04:49PM 30.3281 -86.0306 290° West 420 483 38,000  Level Jacksonville Center
04:50PM 30.3667 -86.1572 289° West 420 483 38,000  Level Jacksonville Center
04:51PM 30.4094 -86.2814 292° West 420 483 38,000  Level Jacksonville Center
04:52PM 30.4456 -86.4103 288° West 420 483 38,000  Level Jacksonville Center
04:53PM 30.4817 -86.5394 288° West 425 489 38,000  Level Jacksonville Center
04:54PM 30.4839 -86.6769 271° West 425 489 38,000  Level Jacksonville Center
04:55PM 30.4794 -86.8164 268° West 425 489 38,000  Level Jacksonville Center
04:56PM 30.4775 -86.9514 269° West 425 489 38,000  Level Jacksonville Center
04:58PM 30.4725 -87.2000 269° West 424 488 38,000  Level Houston Center
04:59PM 30.4700 -87.3361 269° West 422 486 38,000  Level Houston Center
05:00PM 30.4656 -87.4983 268° West 420 483 38,000  Level Houston Center
05:01PM 30.4417 -87.6336 258° West 422 486 38,000  Level Houston Center
05:02PM 30.4167 -87.7672 258° West 422 486 38,000  Level Houston Center
05:03PM 30.3911 -87.9019 258° West 424 488 38,000  Level Houston Center
05:04PM 30.3667 -88.0350 258° West 421 484 38,000  Level Houston Center
05:05PM 30.3403 -88.1689 257° West 424 488 38,000  Level Houston Center
05:06PM 30.3150 -88.3022 258° West 424 488 38,000  Level Houston Center
05:07PM 30.2847 -88.4628 258° West 423 487 38,000  Level Houston Center
05:08PM 30.2583 -88.5958 257° West 423 487 38,000  Level Houston Center
05:09PM 30.2322 -88.7283 257° West 422 486 38,000  Level Houston Center
05:11PM 30.2069 -88.8603 258° West 421 484 38,000  Level Houston Center
05:12PM 30.1825 -88.9922 258° West 424 488 38,000  Level Houston Center
05:13PM 30.1564 -89.1242 257° West 422 486 38,000  Level Houston Center
05:14PM 30.1256 -89.2822 257° West 419 482 38,000  Level Houston Center
05:15PM 30.0992 -89.4147 257° West 420 483 38,000  Level Houston Center
05:16PM 30.0719 -89.5492 257° West 424 488 38,000  Level Houston Center
05:17PM 30.0442 -89.6831 257° West 425 489 38,000  Level Houston Center
05:18PM 30.0169 -89.8178 257° West 426 490 38,000  Level Houston Center
05:19PM 29.9908 -89.9503 257° West 423 487 38,000  Level Houston Center
05:20PM 29.9639 -90.0839 257° West 424 488 38,000  Level Houston Center
05:21PM 29.9308 -90.2428 257° West 425 489 38,000  Level Houston Center
05:22PM 29.9036 -90.3753 257° West 424 488 38,000  Level Houston Center
05:23PM 29.8769 -90.5075 257° West 424 488 38,000  Level Houston Center
05:24PM 29.8489 -90.6392 256° West 424 488 38,000  Level Houston Center
05:25PM 29.8197 -90.7703 256° West 423 487 38,000  Level Houston Center
05:26PM 29.7942 -90.9017 257° West 423 487 38,000  Level Houston Center
05:27PM 29.7603 -91.0578 256° West 420 483 38,000  Level Houston Center
05:28PM 29.7322 -91.1897 256° West 423 487 38,000  Level Houston Center
05:29PM 29.7044 -91.3192 256° West 419 482 38,000  Level Houston Center
05:30PM 29.6769 -91.4494 256° West 420 483 38,000  Level Houston Center
05:31PM 29.6494 -91.5808 256° West 422 486 38,000  Level Houston Center
05:32PM 29.6206 -91.7125 256° West 424 488 38,000  Level Houston Center
05:33PM 29.5853 -91.8694 256° West 419 482 38,000  Level Houston Center
05:34PM 29.5575 -92.0014 256° West 424 488 38,000  Level Houston Center
05:35PM 29.5289 -92.1311 256° West 419 482 38,000  Level Houston Center
05:36PM 29.4994 -92.2614 255° West 421 484 38,000  Level Houston Center
05:37PM 29.4703 -92.3919 256° West 422 486 38,000  Level Houston Center
05:38PM 29.4589 -92.5256 264° West 422 486 38,000  Level Houston Center
05:39PM 29.4647 -92.6586 273° West 418 481 38,000  Level Houston Center
05:41PM 29.4722 -92.8181 273° West 419 482 38,000  Level Houston Center
05:42PM 29.4778 -92.9514 273° West 418 481 38,000 -60 Level Houston Center
05:43PM 29.4842 -93.0856 273° West 420 483 37,900 -1,320 Descending Houston Center
05:44PM 29.4911 -93.2247 273° West 434 499 35,300 -2,520 Descending Houston Center
05:45PM 29.4967 -93.3625 273° West 433 498 32,700 -2,520 Descending Houston Center
05:46PM 29.5011 -93.4897 272° West 407 468 30,200 -2,760 Descending Houston Center
05:47PM 29.5078 -93.6467 273° West 408 470 27,000 -2,940 Descending Houston Center
05:48PM 29.5128 -93.7808 272° West 414 476 24,200 -2,700 Descending Houston Center
05:49PM 29.5189 -93.9153 273° West 419 482 21,500 -2,580 Descending Houston Center
05:50PM 29.5242 -94.0425 273° West 414 476 18,900 -2,760 Descending Houston Center
05:51PM 29.5250 -94.1469 271° West 366 421 16,500 -2,880 Descending Houston Center
05:52PM 29.5306 -94.2664 273° West 358 412 13,700 -1,740 Descending Houston Center
05:53PM 29.5456 -94.3750 279° West 334 384 13,000 -480 Descending Houston Center
05:53PM 29.5564 -94.3936 304° West 350 403 13,100 -240 Climbing Houston Center
05:54PM 29.5867 -94.4706 294° West 338 389 12,800 -540 Descending Houston Center
05:54PM 29.5961 -94.4894 300° West 336 387 12,600 -1,380 Descending Houston Center
05:55PM 29.6247 -94.5594 295° West 302 348 11,400 -1,380 Descending Houston Center
05:55PM 29.6336 -94.5781 299° West 319 367 11,200 -1,320 Descending Houston Center
05:56PM 29.6603 -94.6439 295° West 295 339 10,100 -1,260 Descending Houston Center
05:56PM 29.6683 -94.6606 299° West 296 341 9,900 -1,140 Descending Houston Center
05:57PM 29.6931 -94.7217 295° West 291 335 9,100 -1,200 Descending Houston Center
05:57PM 29.7039 -94.7436 300° West 293 337 8,700 -1,260 Descending Houston Center
05:58PM 29.7339 -94.8175 295° West 290 334 7,700 -1,500 Descending Houston Center
05:58PM 29.7461 -94.8428 299° West 291 335 7,200 -1,200 Descending Houston Center
05:59PM 29.7692 -94.8997 295° West 289 333 6,500 -1,080 Descending Houston Center
05:59PM 29.7814 -94.9247 299° West 289 333 6,100 -540 Descending Houston Center
06:00PM 29.8042 -94.9819 295° West 285 328 6,000 -60 Descending Houston Center
06:01PM 29.8397 -95.0692 295° West 284 327 6,000  Level Houston Center
06:01PM 29.8494 -95.0878 301° West 285 328 6,000  Level Houston Center
06:02PM 29.8717 -95.1425 295° West 285 328 6,000  Level Houston Center
06:02PM 29.8844 -95.1692 299° West 286 329 6,000  Level Houston Center
06:03PM 29.8986 -95.2283 285° West 276 318 6,000  Level Houston Center
06:03PM 29.9008 -95.2728 273° West 284 327 6,000  Level Houston Center
06:04PM 29.8986 -95.3197 267° West 275 316 6,000  Level Houston Center
06:04PM 29.9006 -95.3586 273° West 272 313 6,000  Level Houston Center
06:05PM 29.8997 -95.3992 269° West 217 250 6,000  Level Houston Center
06:05PM 29.9008 -95.4300 272° West 221 254 6,000 -420 Level Houston Center
06:06PM 29.8994 -95.4667 268° West 192 221 5,600 -900 Descending Houston Center
06:06PM 29.9011 -95.4942 274° West 204 235 5,100 -1,500 Descending Houston Center
06:07PM 29.9011 -95.5317 270° West 198 228 4,100 -1,860 Descending Houston Center
06:07PM 29.9025 -95.5586 273° West 203 234 3,200 -1,140 Descending Houston Center
06:08PM 29.9339 -95.5686 345° North 198 228 3,000 -240 Descending Houston Center
06:08PM 29.9658 -95.5581 16° North 198 228 3,000  Level Houston Center
06:09PM 29.9775 -95.5394 54° Northeast 179 206 3,000 -300 Level Houston Center
06:09PM 29.9933 -95.5103 58° Northeast 184 212 2,700 -540 Descending Houston Center